Time;durP1;ratioP1;P1;durP2;ratioP2;P2;SDS_P1;SDS_P2;PMS_P1;PMS_P2;Temp;Humidity;BMP_temperature;BMP_pressure;BME280_temperature;BME280_humidity;BME280_pressure;Samples;Min_cycle;Max_cycle;Signal;HPM_P1;HPM_P2
2023/07/20 00:00:13;;;;;;;2.90;1.70;;;;;;;;;;5113135;28;20095;-86
2023/07/20 00:02:40;;;;;;;3.20;2.38;;;;;;;;;;5113199;28;20016;-82
2023/07/20 00:05:06;;;;;;;4.55;2.30;;;;;;;;;;5122132;27;20023;-87
2023/07/20 00:07:32;;;;;;;3.78;1.73;;;;;;;;;;5134498;27;20022;-87
2023/07/20 00:09:58;;;;;;;3.53;2.30;;;;;;;;;;5133434;27;20022;-78
2023/07/20 00:12:24;;;;;;;3.75;2.05;;;;;;;;;;5118771;27;20020;-83
2023/07/20 00:14:53;;;;;;;3.25;2.10;;;;;;;;;;5113429;28;20563;-87
2023/07/20 00:17:19;;;;;;;4.90;2.13;;;;;;;;;;5113549;28;20008;-86
2023/07/20 00:19:45;;;;;;;4.13;2.28;;;;;;;;;;5113719;28;20039;-86
2023/07/20 00:22:12;;;;;;;4.90;2.13;;;;;;;;;;5118445;27;20018;-88
2023/07/20 00:24:38;;;;;;;6.55;2.55;;;;;;;;;;5115217;27;20020;-86
2023/07/20 00:27:05;;;;;;;4.03;2.20;;;;;;;;;;5094731;28;20084;-88
2023/07/20 00:29:31;;;;;;;8.98;1.77;;;;;;;;;;5113433;28;20030;-86
2023/07/20 00:31:57;;;;;;;2.22;1.88;;;;;;;;;;5113166;28;20027;-76
2023/07/20 00:34:23;;;;;;;2.20;1.77;;;;;;;;;;5094505;28;20016;-84
2023/07/20 00:36:49;;;;;;;4.95;1.80;;;;;;;;;;5098685;27;20034;-84
2023/07/20 00:39:15;;;;;;;2.22;1.60;;;19.20;81.90;;;;;;5132770;27;20215;-82
2023/07/20 00:41:40;;;;;;;3.22;1.90;;;19.20;82.50;;;;;;5132617;27;20475;-84
2023/07/20 00:44:06;;;;;;;2.58;1.40;;;19.10;82.90;;;;;;5132120;27;20085;-84
2023/07/20 00:46:32;;;;;;;3.20;2.08;;;18.90;83.20;;;;;;5133229;27;20015;-77
2023/07/20 00:48:58;;;;;;;2.60;1.60;;;18.90;83.40;;;;;;5111384;28;20043;-76
2023/07/20 00:51:25;;;;;;;2.28;1.38;;;18.80;83.40;;;;;;5113047;28;20019;-87
2023/07/20 00:53:51;;;;;;;3.25;1.70;;;18.70;83.60;;;;;;5116278;27;20023;-86
2023/07/20 00:56:17;;;;;;;2.03;1.80;;;18.80;83.60;;;;;;5132554;27;20042;-87
2023/07/20 00:58:43;;;;;;;3.22;1.83;;;18.70;83.70;;;;;;5110407;27;21263;-85
2023/07/20 01:01:08;;;;;;;17.35;2.30;;;18.70;84.10;;;;;;5111768;28;20028;-86
2023/07/20 01:03:34;;;;;;;4.30;1.80;;;18.70;84.00;;;;;;5113172;28;20506;-85
2023/07/20 01:06:26;;;;;;;2.92;1.60;;;18.70;84.30;;;;;;5111712;28;20450;-85
2023/07/20 01:09:13;;;;;;;4.25;2.30;;;18.80;84.10;;;;;;5111795;28;20028;-87
2023/07/20 01:12:23;;;;;;;2.47;1.90;;;18.80;84.20;;;;;;5122948;27;20023;-87
2023/07/20 01:14:49;;;;;;;2.00;1.63;;;18.70;84.40;;;;;;5093198;27;20033;-85
2023/07/20 01:17:15;;;;;;;3.40;2.25;;;18.70;84.60;;;;;;5127168;27;20084;-86
2023/07/20 01:19:41;;;;;;;3.88;2.10;;;18.60;84.90;;;;;;5113695;28;20032;-86
2023/07/20 01:22:17;;;;;;;3.17;2.10;;;18.60;85.20;;;;;;5112582;28;20062;-86
2023/07/20 01:25:19;;;;;;;3.42;1.77;;;18.50;85.30;;;;;;5113035;28;20020;-86
2023/07/20 01:28:09;;;;;;;3.53;1.90;;;18.50;85.50;;;;;;5063603;28;20047;-86
2023/07/20 01:30:49;;;;;;;2.78;2.00;;;18.40;85.90;;;;;;5102365;28;20030;-87
2023/07/20 01:33:17;;;;;;;4.30;2.00;;;18.30;86.10;;;;;;5111975;28;20111;-86
2023/07/20 01:35:44;;;;;;;3.47;1.90;;;18.30;86.30;;;;;;5112326;28;20047;-86
2023/07/20 01:38:12;;;;;;;3.30;2.10;;;18.20;86.60;;;;;;5111619;28;20050;-86
2023/07/20 01:40:39;;;;;;;5.43;1.95;;;18.20;86.90;;;;;;5120026;27;20057;-86
2023/07/20 01:43:04;;;;;;;2.25;1.80;;;18.10;87.00;;;;;;5109321;27;20076;-85
2023/07/20 01:45:30;;;;;;;3.10;1.80;;;18.10;87.30;;;;;;5112476;28;20045;-86
2023/07/20 01:47:56;;;;;;;5.68;2.25;;;18.00;87.40;;;;;;5112180;28;20034;-77
2023/07/20 01:50:22;;;;;;;3.83;2.20;;;18.00;88.00;;;;;;5111974;28;20055;-86
2023/07/20 01:52:48;;;;;;;1.98;1.88;;;18.00;88.20;;;;;;5112327;28;20072;-86
2023/07/20 01:55:13;;;;;;;4.00;2.42;;;18.00;88.40;;;;;;5091534;28;20065;-84
2023/07/20 01:57:39;;;;;;;4.60;2.10;;;17.90;88.70;;;;;;5092146;28;20357;-87
2023/07/20 02:00:05;;;;;;;3.25;2.10;;;17.80;88.90;;;;;;5098486;28;20426;-87
2023/07/20 02:02:31;;;;;;;2.05;1.67;;;17.90;88.80;;;;;;5111870;28;20028;-88
2023/07/20 02:04:57;;;;;;;5.00;2.03;;;17.90;88.90;;;;;;5108743;28;20080;-79
2023/07/20 02:07:22;;;;;;;5.18;1.80;;;17.80;89.80;;;;;;5092117;28;20373;-88
2023/07/20 02:09:48;;;;;;;4.28;1.98;;;17.80;89.50;;;;;;5092897;28;20103;-87
2023/07/20 02:12:14;;;;;;;4.43;2.25;;;17.70;89.60;;;;;;5097098;28;20035;-85
2023/07/20 02:14:39;;;;;;;3.70;2.05;;;17.70;90.00;;;;;;5096988;28;20032;-87
2023/07/20 02:17:05;;;;;;;4.55;2.13;;;17.60;90.30;;;;;;5103745;28;20083;-86
2023/07/20 02:19:30;;;;;;;4.45;2.55;;;17.50;90.40;;;;;;5117884;28;20022;-86
2023/07/20 02:21:57;;;;;;;3.20;2.08;;;17.50;90.50;;;;;;5112055;28;20028;-78
2023/07/20 02:24:22;;;;;;;3.42;2.63;;;17.40;90.70;;;;;;5081989;28;20111;-87
2023/07/20 02:26:48;;;;;;;2.83;1.80;;;17.40;90.80;;;;;;5092947;28;20067;-86
2023/07/20 02:29:14;;;;;;;4.80;1.88;;;17.40;90.90;;;;;;5091387;28;20016;-86
2023/07/20 02:31:39;;;;;;;3.42;2.20;;;17.30;91.00;;;;;;5111906;28;20020;-86
2023/07/20 02:34:09;;;;;;;2.28;2.08;;;17.30;91.10;;;;;;5102456;28;20034;-81
2023/07/20 02:36:35;;;;;;;3.30;2.20;;;17.20;91.10;;;;;;5092767;28;20023;-86
2023/07/20 02:39:03;;;;;;;4.53;2.28;;;17.20;91.30;;;;;;5092404;28;20020;-85
2023/07/20 02:41:30;;;;;;;5.47;2.13;;;17.10;91.40;;;;;;5111844;28;20038;-87
2023/07/20 02:43:56;;;;;;;4.75;1.85;;;17.10;91.60;;;;;;5102615;27;20044;-78
2023/07/20 02:46:22;;;;;;;4.75;2.15;;;17.00;91.70;;;;;;5094789;28;20107;-86
2023/07/20 02:48:48;;;;;;;6.13;2.00;;;17.00;91.80;;;;;;5110119;28;20051;-86
2023/07/20 02:51:13;;;;;;;4.32;2.15;;;17.00;91.90;;;;;;5153180;28;20031;-85
2023/07/20 02:53:39;;;;;;;4.63;2.42;;;17.00;92.00;;;;;;5155488;28;20023;-86
2023/07/20 02:56:05;;;;;;;5.25;2.03;;;16.90;92.20;;;;;;5134639;28;20032;-87
2023/07/20 02:58:30;;;;;;;3.58;2.08;;;17.00;96.70;;;;;;5124775;28;20027;-87
2023/07/20 03:00:56;;;;;;;4.55;1.95;;;16.90;98.50;;;;;;5125393;28;20020;-75
2023/07/20 03:03:22;;;;;;;3.58;1.85;;;16.90;99.30;;;;;;5132604;28;20041;-85
2023/07/20 03:05:54;;;;;;;3.30;2.10;;;16.90;99.90;;;;;;5151285;27;20023;-86
2023/07/20 03:08:19;;;;;;;4.97;2.28;;;16.90;99.70;;;;;;5134016;27;20028;-87
2023/07/20 03:10:45;;;;;;;6.82;2.40;;;16.90;99.90;;;;;;5131608;28;20583;-86
2023/07/20 03:13:11;;;;;;;3.38;2.08;;;16.80;99.90;;;;;;5138234;28;20023;-85
2023/07/20 03:15:36;;;;;;;4.03;2.20;;;16.80;99.90;;;;;;5131344;28;20016;-86
2023/07/20 03:18:03;;;;;;;2.70;2.10;;;16.80;99.90;;;;;;5122790;27;20027;-83
2023/07/20 03:20:29;;;;;;;2.08;1.75;;;16.80;99.90;;;;;;5160137;27;20015;-83
2023/07/20 03:22:55;;;;;;;3.75;1.95;;;16.80;99.90;;;;;;5158918;27;20054;-74
2023/07/20 03:25:21;;;;;;;2.10;1.90;;;16.80;99.90;;;;;;5150125;27;20034;-86
2023/07/20 03:27:46;;;;;;;2.60;2.13;;;16.70;99.90;;;;;;5139645;28;20023;-85
2023/07/20 03:30:12;;;;;;;4.60;2.03;;;16.70;99.90;;;;;;5137329;28;20012;-85
2023/07/20 03:32:37;;;;;;;2.22;1.88;;;16.80;99.90;;;;;;5139416;28;20034;-86
2023/07/20 03:35:04;;;;;;;4.10;2.20;;;16.70;99.90;;;;;;5136347;28;20142;-79
2023/07/20 03:37:30;;;;;;;5.38;2.10;;;16.70;99.90;;;;;;5137666;27;20011;-82
2023/07/20 03:39:55;;;;;;;3.45;1.95;;;16.80;99.90;;;;;;5138041;27;20007;-75
2023/07/20 03:42:21;;;;;;;4.10;2.45;;;16.70;99.90;;;;;;5135569;27;20066;-86
2023/07/20 03:44:46;;;;;;;5.82;2.00;;;16.70;99.90;;;;;;5129331;28;20018;-84
2023/07/20 03:47:12;;;;;;;4.50;1.85;;;16.70;99.90;;;;;;5123737;28;20020;-86
2023/07/20 03:49:37;;;;;;;6.47;2.63;;;16.70;99.90;;;;;;5127467;28;20038;-86
2023/07/20 03:52:04;;;;;;;3.45;1.90;;;16.70;99.90;;;;;;5126086;28;20037;-87
2023/07/20 03:54:30;;;;;;;3.08;2.10;;;16.70;99.90;;;;;;5126114;28;20035;-83
2023/07/20 03:56:55;;;;;;;3.63;2.10;;;16.70;99.90;;;;;;5127540;28;20075;-75
2023/07/20 03:59:21;;;;;;;2.90;1.88;;;16.70;99.90;;;;;;5126501;28;20042;-84
2023/07/20 04:01:46;;;;;;;3.70;1.90;;;16.70;99.90;;;;;;5111392;28;20035;-85
2023/07/20 04:04:13;;;;;;;4.75;2.55;;;16.80;99.90;;;;;;5126208;28;20011;-81
2023/07/20 04:06:39;;;;;;;3.40;2.20;;;16.70;99.90;;;;;;5128163;27;20037;-86
2023/07/20 04:09:07;;;;;;;3.22;2.10;;;16.80;99.90;;;;;;5116589;28;20024;-87
2023/07/20 04:11:33;;;;;;;6.30;2.35;;;16.80;99.90;;;;;;5096325;28;20417;-83
2023/07/20 04:13:58;;;;;;;3.30;2.30;;;16.80;99.90;;;;;;5094606;28;20023;-76
2023/07/20 04:16:24;;;;;;;2.17;1.70;;;16.80;99.90;;;;;;5096515;28;20020;-87
2023/07/20 04:18:50;;;;;;;3.17;2.10;;;16.90;99.90;;;;;;5097612;28;20069;-87
2023/07/20 04:21:15;;;;;;;7.40;2.08;;;17.00;99.90;;;;;;5097198;28;20023;-86
2023/07/20 04:23:41;;;;;;;5.35;2.33;;;17.00;99.90;;;;;;5093578;28;20059;-85
2023/07/20 04:26:07;;;;;;;4.22;2.22;;;17.10;99.90;;;;;;5096783;28;20530;-87
2023/07/20 04:28:33;;;;;;;3.40;2.00;;;17.10;99.90;;;;;;5099676;28;20020;-84
2023/07/20 04:31:13;;;;;;;3.83;2.00;;;17.20;99.90;;;;;;5098903;28;20020;-82
2023/07/20 04:33:39;;;;;;;4.17;2.27;;;17.30;99.90;;;;;;5099608;28;20031;-87
2023/07/20 04:36:04;;;;;;;3.92;2.20;;;17.40;99.90;;;;;;5098136;28;20020;-87
2023/07/20 04:38:30;;;;;;;2.90;2.15;;;17.40;99.90;;;;;;5094074;28;20021;-88
2023/07/20 04:40:56;;;;;;;4.53;2.00;;;17.60;99.90;;;;;;5092984;28;20368;-78
2023/07/20 04:43:22;;;;;;;4.95;2.20;;;17.60;99.90;;;;;;5104608;28;20032;-87
2023/07/20 04:45:47;;;;;;;4.00;1.80;;;17.70;99.90;;;;;;5114302;28;20028;-86
2023/07/20 04:48:18;;;;;;;4.95;2.20;;;17.80;99.90;;;;;;5115019;28;20024;-86
2023/07/20 04:50:45;;;;;;;2.80;1.88;;;17.80;99.90;;;;;;5130893;28;20019;-84
2023/07/20 04:53:11;;;;;;;1.88;1.60;;;18.00;99.90;;;;;;5133811;28;20028;-82
2023/07/20 04:55:38;;;;;;;3.53;2.00;;;18.00;99.90;;;;;;5132681;28;20019;-85
2023/07/20 04:58:05;;;;;;;5.00;1.90;;;18.20;99.90;;;;;;5135492;28;20015;-84
2023/07/20 05:00:32;;;;;;;2.63;2.08;;;18.20;99.90;;;;;;5116465;28;20022;-86
2023/07/20 05:02:57;;;;;;;3.20;1.88;;;18.40;99.90;;;;;;5113605;28;20030;-78
2023/07/20 05:05:23;;;;;;;2.88;2.10;;;18.50;99.90;;;;;;5113385;28;20036;-84
2023/07/20 05:07:48;;;;;;;3.65;1.90;;;18.60;99.90;;;;;;5114198;28;20024;-85
2023/07/20 05:10:14;;;;;;;3.30;1.90;;;18.70;99.90;;;;;;5112649;28;20024;-86
2023/07/20 05:12:40;;;;;;;5.22;2.15;;;18.80;99.90;;;;;;5113632;28;20029;-85
2023/07/20 05:15:06;;;;;;;2.78;1.85;;;19.00;99.90;;;;;;5112756;28;20111;-86
2023/07/20 05:17:31;;;;;;;5.63;2.95;;;19.00;99.90;;;;;;5113744;28;20123;-86
2023/07/20 05:19:57;;;;;;;3.22;1.92;;;19.20;99.90;;;;;;5112450;28;20026;-77
2023/07/20 05:22:24;;;;;;;4.15;2.13;;;19.20;99.90;;;;;;5113307;28;20040;-86
2023/07/20 05:24:50;;;;;;;5.45;1.88;;;19.30;99.90;;;;;;5113091;28;20019;-84
2023/07/20 05:27:15;;;;;;;2.25;1.77;;;19.40;99.90;;;;;;5107977;28;20024;-78
2023/07/20 05:29:45;;;;;;;5.38;2.10;;;19.50;99.90;;;;;;5110999;28;20399;-84
2023/07/20 05:32:11;;;;;;;3.58;1.90;;;19.60;99.90;;;;;;5111372;28;20024;-78
2023/07/20 05:34:36;;;;;;;3.20;1.95;;;19.60;99.90;;;;;;5111401;28;20092;-86
2023/07/20 05:37:02;;;;;;;2.55;1.90;;;19.70;99.90;;;;;;5111310;28;20482;-82
2023/07/20 05:39:27;;;;;;;4.32;2.20;;;19.80;99.90;;;;;;5110224;28;20038;-83
2023/07/20 05:41:53;;;;;;;4.68;1.80;;;19.80;99.90;;;;;;5111795;28;20040;-82
2023/07/20 05:44:19;;;;;;;3.42;2.42;;;19.90;99.90;;;;;;5109453;28;20139;-84
2023/07/20 05:46:44;;;;;;;3.80;2.40;;;19.90;99.90;;;;;;5112333;28;20023;-73
2023/07/20 05:49:10;;;;;;;5.28;2.13;;;19.90;99.90;;;;;;5109552;28;20122;-73
2023/07/20 05:51:36;;;;;;;4.80;1.92;;;19.90;99.90;;;;;;5110889;28;20031;-75
2023/07/20 05:54:01;;;;;;;5.32;2.63;;;20.00;99.90;;;;;;5110121;28;20102;-76
2023/07/20 05:56:27;;;;;;;6.15;1.85;;;20.00;99.90;;;;;;5112676;28;20075;-86
2023/07/20 05:58:53;;;;;;;3.60;2.08;;;20.00;99.90;;;;;;5112939;28;20099;-83
2023/07/20 06:01:19;;;;;;;2.85;2.30;;;20.00;99.90;;;;;;5112126;28;20110;-82
2023/07/20 06:03:44;;;;;;;2.50;1.95;;;20.10;99.90;;;;;;5113530;28;20031;-85
2023/07/20 06:06:11;;;;;;;5.18;2.08;;;20.20;99.90;;;;;;5116445;28;20012;-89
2023/07/20 06:08:37;;;;;;;4.55;2.20;;;20.30;99.90;;;;;;5118912;28;20016;-89
2023/07/20 06:11:03;;;;;;;1.98;1.75;;;20.30;99.90;;;;;;5110945;28;20035;-88
2023/07/20 06:13:29;;;;;;;6.35;2.10;;;20.40;99.90;;;;;;5113785;28;20035;-86
2023/07/20 06:15:55;;;;;;;5.82;2.22;;;20.50;99.90;;;;;;5111143;28;20108;-76
2023/07/20 06:18:24;;;;;;;3.88;1.80;;;20.60;99.90;;;;;;5111184;28;20034;-85
2023/07/20 06:20:51;;;;;;;3.15;2.00;;;20.60;99.90;;;;;;5111465;28;20027;-85
2023/07/20 06:23:18;;;;;;;3.25;1.65;;;20.60;99.90;;;;;;5110923;28;20019;-82
2023/07/20 06:25:44;;;;;;;5.07;2.20;;;20.60;99.90;;;;;;5095926;28;20080;-83
2023/07/20 06:28:09;;;;;;;2.25;1.60;;;20.60;99.90;;;;;;5116062;28;20448;-76
2023/07/20 06:30:35;;;;;;;3.35;1.80;;;20.50;99.90;;;;;;5122245;28;20039;-82
2023/07/20 06:33:00;;;;;;;5.35;2.10;;;20.50;99.90;;;;;;5099523;28;20027;-84
2023/07/20 06:35:26;;;;;;;3.95;2.03;;;20.50;99.90;;;;;;5110362;28;20091;-85
2023/07/20 06:37:52;;;;;;;4.72;2.22;;;20.60;99.90;;;;;;5111143;28;20023;-86
2023/07/20 06:40:18;;;;;;;2.65;1.77;;;20.40;99.90;;;;;;5112147;28;20020;-84
2023/07/20 06:42:44;;;;;;;4.78;1.80;;;20.40;99.90;;;;;;5114675;28;20059;-86
2023/07/20 06:45:10;;;;;;;5.10;2.00;;;20.40;99.90;;;;;;5113543;28;20016;-78
2023/07/20 06:47:39;;;;;;;5.65;1.92;;;20.50;99.90;;;;;;5114513;28;20491;-82
2023/07/20 06:50:07;;;;;;;5.68;1.90;;;20.60;99.90;;;;;;5113562;28;20118;-83
2023/07/20 06:52:33;;;;;;;4.38;2.17;;;20.70;99.90;;;;;;5113889;28;20031;-82
2023/07/20 06:54:58;;;;;;;5.00;2.25;;;20.90;99.90;;;;;;5113694;28;20027;-75
2023/07/20 06:57:24;;;;;;;5.50;2.20;;;21.10;99.90;;;;;;5116256;28;20062;-76
2023/07/20 06:59:50;;;;;;;3.20;2.08;;;21.10;99.90;;;;;;5114220;28;20028;-80
2023/07/20 07:02:16;;;;;;;5.40;2.13;;;21.30;99.90;;;;;;5112981;28;20028;-73
2023/07/20 07:04:42;;;;;;;6.22;2.60;;;21.30;99.90;;;;;;5095435;28;20020;-75
2023/07/20 07:07:08;;;;;;;2.22;1.75;;;21.30;99.90;;;;;;5113434;28;20066;-75
2023/07/20 07:09:34;;;;;;;5.57;1.83;;;21.30;99.90;;;;;;5112873;28;20076;-76
2023/07/20 07:12:00;;;;;;;3.47;1.77;;;21.30;99.90;;;;;;5113243;28;20020;-75
2023/07/20 07:14:25;;;;;;;3.65;1.67;;;21.20;99.90;;;;;;5112931;28;20131;-76
2023/07/20 07:16:51;;;;;;;2.72;1.50;;;21.30;99.90;;;;;;5113973;28;20390;-85
2023/07/20 07:19:16;;;;;;;5.63;2.40;;;21.40;99.90;;;;;;5112678;28;20081;-81
2023/07/20 07:21:42;;;;;;;6.10;2.28;;;21.40;99.90;;;;;;5113722;28;20059;-73
2023/07/20 07:24:09;;;;;;;7.30;2.10;;;21.50;99.90;;;;;;5111881;28;20028;-71
2023/07/20 07:26:36;;;;;;;6.13;2.50;;;21.60;99.90;;;;;;5113330;28;20353;-72
2023/07/20 07:29:02;;;;;;;3.10;1.95;;;21.60;99.90;;;;;;5112627;28;20062;-72
2023/07/20 07:31:30;;;;;;;6.32;1.98;;;21.60;99.90;;;;;;5113126;28;20058;-73
2023/07/20 07:33:56;;;;;;;3.08;2.05;;;21.70;99.90;;;;;;5113119;28;20377;-72
2023/07/20 07:36:24;;;;;;;3.35;1.75;;;21.80;99.90;;;;;;5112375;28;20020;-73
2023/07/20 07:38:50;;;;;;;3.75;1.90;;;21.90;99.90;;;;;;5113000;28;20066;-77
2023/07/20 07:41:16;;;;;;;5.82;1.98;;;21.90;99.90;;;;;;5111312;28;20059;-79
2023/07/20 07:43:41;;;;;;;3.88;2.33;;;22.00;99.90;;;;;;5113063;28;20110;-74
2023/07/20 07:46:07;;;;;;;3.80;2.08;;;22.10;96.20;;;;;;5112307;28;20062;-73
2023/07/20 07:48:32;;;;;;;3.75;1.95;;;22.20;95.00;;;;;;5112748;28;20491;-74
2023/07/20 07:50:58;;;;;;;3.85;2.15;;;22.40;94.40;;;;;;5111471;28;20019;-74
2023/07/20 07:53:25;;;;;;;4.78;2.40;;;22.40;94.00;;;;;;5112258;28;20035;-74
2023/07/20 07:55:52;;;;;;;7.25;2.17;;;22.50;93.50;;;;;;5112734;28;20049;-74
2023/07/20 07:58:17;;;;;;;3.45;2.10;;;22.50;90.30;;;;;;5111872;28;20027;-73
2023/07/20 08:00:44;;;;;;;4.53;2.05;;;22.60;90.30;;;;;;5112606;28;20015;-76
2023/07/20 08:03:10;;;;;;;3.97;1.88;;;22.70;89.80;;;;;;5112683;28;20372;-75
2023/07/20 08:05:36;;;;;;;8.80;2.40;;;22.90;89.30;;;;;;5112217;28;20112;-75
2023/07/20 08:08:05;;;;;;;4.18;1.90;;;23.20;88.70;;;;;;5112010;28;20055;-74
2023/07/20 08:10:31;;;;;;;6.88;2.30;;;23.40;88.30;;;;;;5111597;28;20045;-76
2023/07/20 08:12:57;;;;;;;3.40;1.90;;;23.40;87.70;;;;;;5112584;28;20024;-74
2023/07/20 08:15:23;;;;;;;3.75;1.60;;;23.50;88.00;;;;;;5111703;28;20019;-76
2023/07/20 08:17:51;;;;;;;8.10;2.10;;;23.70;87.20;;;;;;5113106;28;20026;-76
2023/07/20 08:20:17;;;;;;;3.95;2.08;;;23.80;86.00;;;;;;5110960;28;20024;-74
2023/07/20 08:22:43;;;;;;;5.38;1.98;;;23.80;86.00;;;;;;5112922;28;20131;-75
2023/07/20 08:25:09;;;;;;;7.93;2.20;;;23.80;84.70;;;;;;5110706;28;20039;-73
2023/07/20 08:27:36;;;;;;;6.97;1.95;;;23.90;84.50;;;;;;5112953;28;20035;-75
2023/07/20 08:30:02;;;;;;;5.35;1.80;;;24.00;84.00;;;;;;5111341;28;20102;-69
2023/07/20 08:32:28;;;;;;;3.03;1.67;;;23.90;84.10;;;;;;5112192;28;20043;-69
2023/07/20 08:34:53;;;;;;;5.00;1.95;;;23.80;83.70;;;;;;5112058;28;20356;-69
2023/07/20 08:37:19;;;;;;;4.45;1.80;;;23.80;83.90;;;;;;5111302;28;20020;-70
2023/07/20 08:39:45;;;;;;;5.57;1.95;;;23.60;84.70;;;;;;5110973;28;20039;-69
2023/07/20 08:42:11;;;;;;;4.32;2.10;;;23.40;85.40;;;;;;5110782;28;20070;-68
2023/07/20 08:44:39;;;;;;;5.72;1.77;;;23.30;86.30;;;;;;5111957;28;20050;-68
2023/07/20 08:47:07;;;;;;;3.85;2.33;;;23.10;86.60;;;;;;5111482;28;20023;-69
2023/07/20 08:49:33;;;;;;;4.10;1.98;;;22.90;86.00;;;;;;5111505;28;20055;-69
2023/07/20 08:52:00;;;;;;;7.82;2.30;;;22.80;85.70;;;;;;5111244;28;20023;-69
2023/07/20 08:54:32;;;;;;;3.83;1.80;;;22.90;85.20;;;;;;5110619;28;20051;-68
2023/07/20 08:57:02;;;;;;;4.35;1.90;;;22.90;85.00;;;;;;5111428;28;20023;-68
2023/07/20 08:59:28;;;;;;;;;;;23.10;86.00;;;;;;5111651;28;20018;-69
2023/07/20 09:01:56;;;;;;;5.97;1.75;;;23.30;84.30;;;;;;5110915;28;19908;-69
2023/07/20 09:04:22;;;;;;;5.53;2.17;;;23.40;84.00;;;;;;5110910;28;20024;-68
2023/07/20 09:06:49;;;;;;;8.18;1.80;;;23.40;82.50;;;;;;5111806;28;20020;-68
2023/07/20 09:09:15;;;;;;;3.42;1.88;;;23.60;82.70;;;;;;5091295;28;20024;-69
2023/07/20 09:11:41;;;;;;;2.78;2.20;;;23.70;82.90;;;;;;5111429;28;20027;-69
2023/07/20 09:14:08;;;;;;;4.50;1.73;;;23.80;82.70;;;;;;5110627;28;20018;-69
2023/07/20 09:16:54;;;;;;;6.15;1.90;;;24.10;81.30;;;;;;5111501;28;20016;-69
2023/07/20 09:19:21;;;;;;;3.00;1.80;;;24.50;81.00;;;;;;5110261;28;20030;-67
2023/07/20 09:21:51;;;;;;;5.60;1.90;;;24.60;81.10;;;;;;5111402;28;20077;-69
2023/07/20 09:24:18;;;;;;;3.55;1.80;;;24.60;80.10;;;;;;5109419;28;20024;-68
2023/07/20 09:26:50;;;;;;;8.15;1.77;;;24.40;80.20;;;;;;5112798;28;20032;-69
2023/07/20 09:29:19;;;;;;;3.63;1.52;;;24.30;80.80;;;;;;5109804;28;20023;-69
2023/07/20 09:32:00;;;;;;;5.75;1.75;;;24.20;80.40;;;;;;5111308;28;20448;-69
2023/07/20 09:34:26;;;;;;;6.75;1.80;;;24.50;80.60;;;;;;5110581;28;20030;-69
2023/07/20 09:36:52;;;;;;;3.97;1.80;;;24.80;79.20;;;;;;5111016;28;20031;-69
2023/07/20 09:39:18;;;;;;;2.95;1.88;;;24.90;79.00;;;;;;5109167;28;20084;-69
2023/07/20 09:41:43;;;;;;;6.25;1.98;;;24.80;78.90;;;;;;5110985;28;20031;-69
2023/07/20 09:44:10;;;;;;;4.45;1.92;;;24.60;79.70;;;;;;5109235;28;20044;-69
2023/07/20 09:46:48;;;;;;;4.63;1.58;;;24.40;79.60;;;;;;5111069;28;20023;-69
2023/07/20 09:49:14;;;;;;;4.22;1.75;;;24.30;79.00;;;;;;5109394;28;20035;-69
2023/07/20 09:51:40;;;;;;;2.17;1.55;;;24.20;79.00;;;;;;5111120;28;20036;-69
2023/07/20 09:54:06;;;;;;;2.80;1.73;;;24.30;78.10;;;;;;5109308;28;20106;-69
2023/07/20 09:56:33;;;;;;;4.93;1.70;;;24.40;77.70;;;;;;5090428;28;20814;-69
2023/07/20 09:58:59;;;;;;;3.92;1.65;;;24.50;77.80;;;;;;5089811;28;20073;-69
2023/07/20 10:01:26;;;;;;;3.50;1.80;;;24.60;77.00;;;;;;5089662;28;20110;-68
2023/07/20 10:03:54;;;;;;;2.42;1.70;;;24.70;76.80;;;;;;5090660;28;20358;-69
2023/07/20 10:06:24;;;;;;;2.72;1.50;;;24.70;76.20;;;;;;5089412;28;20024;-68
2023/07/20 10:08:53;;;;;;;1.98;1.45;;;24.60;76.40;;;;;;5090202;28;20027;-69
2023/07/20 10:11:24;;;;;;;2.13;1.48;;;24.60;76.50;;;;;;5088717;28;20486;-69
2023/07/20 10:13:53;;;;;;;5.40;1.58;;;24.50;76.30;;;;;;5093352;28;20024;-69
2023/07/20 10:16:26;;;;;;;3.13;1.50;;;24.40;76.60;;;;;;5093097;28;20020;-69
2023/07/20 10:19:13;;;;;;;16.00;2.10;;;24.40;76.70;;;;;;5094638;28;20026;-69
2023/07/20 10:21:42;;;;;;;5.65;1.58;;;24.50;77.20;;;;;;5094102;28;20107;-68
2023/07/20 10:24:09;;;;;;;2.43;1.63;;;24.60;76.40;;;;;;5092991;28;20085;-69
2023/07/20 10:26:35;;;;;;;2.88;1.60;;;24.70;74.60;;;;;;5125857;27;20058;-69
2023/07/20 10:29:03;;;;;;;2.38;1.30;;;24.60;74.30;;;;;;5133925;27;20015;-69
2023/07/20 10:31:29;;;;;;;2.42;1.45;;;24.60;74.90;;;;;;5134898;27;20468;-69
2023/07/20 10:33:57;;;;;;;2.22;1.60;;;24.50;74.60;;;;;;5134963;27;20019;-69
2023/07/20 10:36:29;;;;;;;3.55;1.35;;;24.60;74.00;;;;;;5133962;27;20023;-69
2023/07/20 10:38:57;;;;;;;1.95;1.38;;;24.80;72.90;;;;;;5135201;27;20023;-69
2023/07/20 10:41:48;;;;;;;1.75;1.42;;;25.10;73.00;;;;;;5119307;27;20031;-69
2023/07/20 10:44:20;;;;;;;2.00;1.48;;;25.50;72.70;;;;;;5108524;28;20055;-69
2023/07/20 10:46:46;;;;;;;2.00;1.17;;;25.60;72.20;;;;;;5114325;28;20024;-69
2023/07/20 10:49:14;;;;;;;4.03;1.63;;;25.50;73.40;;;;;;5112678;28;20111;-69
2023/07/20 10:51:44;;;;;;;2.17;1.73;;;25.50;72.40;;;;;;5113529;28;20471;-70
2023/07/20 10:54:16;;;;;;;4.20;1.50;;;25.60;71.40;;;;;;5112886;28;20448;-69
2023/07/20 10:56:48;;;;;;;1.70;1.05;;;25.80;72.50;;;;;;5114303;28;20019;-69
2023/07/20 10:59:24;;;;;;;3.22;1.45;;;26.00;71.80;;;;;;5112715;28;20019;-69
2023/07/20 11:01:55;;;;;;;1.83;1.25;;;26.20;70.80;;;;;;5113973;28;20031;-70
2023/07/20 11:04:37;;;;;;;2.15;1.20;;;26.20;70.00;;;;;;5112730;28;20026;-69
2023/07/20 11:07:03;;;;;;;3.05;1.50;;;26.10;70.00;;;;;;5113110;28;20020;-69
2023/07/20 11:09:34;;;;;;;2.05;1.30;;;26.10;69.10;;;;;;5113094;28;20046;-69
2023/07/20 11:12:13;;;;;;;1.35;1.25;;;26.10;69.80;;;;;;5112865;28;20031;-69
2023/07/20 11:14:56;;;;;;;2.80;1.10;;;26.30;69.50;;;;;;5113536;28;20031;-70
2023/07/20 11:17:30;;;;;;;1.98;1.20;;;26.20;68.70;;;;;;5112842;28;20023;-69
2023/07/20 11:19:56;;;;;;;3.08;1.38;;;26.10;68.70;;;;;;5113245;28;20024;-70
2023/07/20 11:22:22;;;;;;;2.35;1.40;;;26.10;68.10;;;;;;5112566;28;20114;-70
2023/07/20 11:24:51;;;;;;;4.97;1.55;;;26.20;68.20;;;;;;5112561;28;20145;-71
2023/07/20 11:27:19;;;;;;;1.45;1.30;;;26.20;68.10;;;;;;5112577;28;20558;-70
2023/07/20 11:29:45;;;;;;;1.90;1.30;;;26.30;67.60;;;;;;5113269;28;20364;-70
2023/07/20 11:32:11;;;;;;;3.25;1.50;;;26.30;66.70;;;;;;5112981;28;20107;-70
2023/07/20 11:34:36;;;;;;;2.63;1.30;;;26.40;68.00;;;;;;5113024;28;20177;-69
2023/07/20 11:37:03;;;;;;;1.80;1.40;;;26.50;67.40;;;;;;5112078;28;20023;-70
2023/07/20 11:39:29;;;;;;;1.77;1.17;;;26.30;67.30;;;;;;5112623;28;20028;-71
2023/07/20 11:41:56;;;;;;;1.48;1.17;;;26.30;67.40;;;;;;5112948;28;20157;-70
2023/07/20 11:44:29;;;;;;;1.85;1.20;;;26.40;67.20;;;;;;5111564;28;20048;-72
2023/07/20 11:47:04;;;;;;;2.55;1.58;;;26.40;67.30;;;;;;5113073;28;20024;-72
2023/07/20 11:49:34;;;;;;;1.42;1.20;;;26.10;67.20;;;;;;5110798;28;20676;-69
2023/07/20 11:52:00;;;;;;;1.30;1.20;;;25.70;67.50;;;;;;5111428;28;20055;-68
2023/07/20 11:54:27;;;;;;;4.00;1.13;;;25.30;68.40;;;;;;5112145;28;20452;-73
2023/07/20 11:56:58;;;;;;;4.50;1.33;;;25.20;67.40;;;;;;5113325;28;20104;-72
2023/07/20 11:59:24;;;;;;;6.00;1.42;;;25.20;68.00;;;;;;5112386;28;20043;-71
2023/07/20 12:01:49;;;;;;;2.97;1.10;;;25.40;68.30;;;;;;5112498;28;20071;-73
2023/07/20 12:04:15;;;;;;;3.75;1.30;;;25.80;67.20;;;;;;5111056;28;20027;-72
2023/07/20 12:06:40;;;;;;;3.85;1.30;;;26.20;66.40;;;;;;5112561;28;20033;-72
2023/07/20 12:09:14;;;;;;;3.35;1.13;;;26.50;66.30;;;;;;5111472;28;20067;-71
2023/07/20 12:11:39;;;;;;;4.03;1.48;;;26.50;66.10;;;;;;5113074;28;20457;-72
2023/07/20 12:14:08;;;;;;;2.65;1.00;;;26.50;65.20;;;;;;5111091;28;20051;-71
2023/07/20 12:16:36;;;;;;;2.58;1.30;;;26.50;65.00;;;;;;5112470;28;20016;-72
2023/07/20 12:19:12;;;;;;;2.22;1.10;;;26.50;65.00;;;;;;5111262;28;20020;-72
2023/07/20 12:21:42;;;;;;;5.85;1.33;;;26.30;65.10;;;;;;5111959;28;20398;-72
2023/07/20 12:24:09;;;;;;;;;;;26.60;64.70;;;;;;5111646;28;20020;-71
2023/07/20 12:26:35;;;;;;;1.92;1.50;;;26.90;64.10;;;;;;5112240;28;19899;-72
2023/07/20 12:29:01;;;;;;;1.27;1.13;;;26.80;63.50;;;;;;5111326;28;20023;-71
2023/07/20 12:31:27;;;;;;;1.73;1.40;;;26.40;63.90;;;;;;5093939;28;20027;-71
2023/07/20 12:33:57;;;;;;;2.25;1.15;;;26.20;64.10;;;;;;5112378;28;20035;-72
2023/07/20 12:36:23;;;;;;;2.05;1.40;;;26.10;64.70;;;;;;5111056;28;20024;-71
2023/07/20 12:38:48;;;;;;;2.05;1.05;;;26.40;64.60;;;;;;5112343;28;20029;-73
2023/07/20 12:41:14;;;;;;;1.95;1.00;;;26.60;64.00;;;;;;5110136;28;20027;-71
2023/07/20 12:43:46;;;;;;;2.17;1.35;;;26.80;63.70;;;;;;5111808;28;20118;-71
2023/07/20 12:46:13;;;;;;;4.35;1.30;;;26.80;63.80;;;;;;5110452;28;20028;-68
2023/07/20 12:48:41;;;;;;;2.35;1.38;;;26.90;65.30;;;;;;5112153;28;20031;-69
2023/07/20 12:51:08;;;;;;;3.03;1.30;;;27.20;65.00;;;;;;5110311;28;20019;-69
2023/07/20 12:53:34;;;;;;;2.95;0.95;;;27.30;64.20;;;;;;5111695;28;20055;-69